sensor_id;sensor_type;location;lat;lon;timestamp;temperature;humidity
40960;DHT22;27842;52.272;8.052;2022-11-20T00:01:11;-0.30;99.90
40960;DHT22;27842;52.272;8.052;2022-11-20T00:03:37;-0.40;99.90
40960;DHT22;27842;52.272;8.052;2022-11-20T00:06:05;-0.40;99.90
40960;DHT22;27842;52.272;8.052;2022-11-20T00:08:31;-0.40;99.90
40960;DHT22;27842;52.272;8.052;2022-11-20T00:10:56;-0.30;99.90
40960;DHT22;27842;52.272;8.052;2022-11-20T00:13:22;-0.30;99.90
40960;DHT22;27842;52.272;8.052;2022-11-20T00:15:48;-0.30;99.90
40960;DHT22;27842;52.272;8.052;2022-11-20T00:18:14;-0.30;99.90
40960;DHT22;27842;52.272;8.052;2022-11-20T00:20:39;-0.30;99.90
40960;DHT22;27842;52.272;8.052;2022-11-20T00:23:05;-0.40;99.90
40960;DHT22;27842;52.272;8.052;2022-11-20T00:25:33;-0.40;99.90
40960;DHT22;27842;52.272;8.052;2022-11-20T00:27:59;-0.40;99.90
40960;DHT22;27842;52.272;8.052;2022-11-20T00:30:25;-0.50;99.90
40960;DHT22;27842;52.272;8.052;2022-11-20T00:32:50;-0.50;99.90
40960;DHT22;27842;52.272;8.052;2022-11-20T00:35:16;-0.50;99.90
40960;DHT22;27842;52.272;8.052;2022-11-20T00:37:41;-0.50;99.90
40960;DHT22;27842;52.272;8.052;2022-11-20T00:40:07;-0.60;99.90
40960;DHT22;27842;52.272;8.052;2022-11-20T00:42:33;-0.50;99.90
40960;DHT22;27842;52.272;8.052;2022-11-20T00:44:59;-0.50;99.90
40960;DHT22;27842;52.272;8.052;2022-11-20T00:47:24;-0.60;99.90
40960;DHT22;27842;52.272;8.052;2022-11-20T00:49:50;-0.60;99.90
40960;DHT22;27842;52.272;8.052;2022-11-20T00:52:15;-0.60;99.90
40960;DHT22;27842;52.272;8.052;2022-11-20T00:54:41;-0.60;99.90
40960;DHT22;27842;52.272;8.052;2022-11-20T00:57:07;-0.60;99.90
40960;DHT22;27842;52.272;8.052;2022-11-20T00:59:32;-0.60;99.90
40960;DHT22;27842;52.272;8.052;2022-11-20T01:01:58;-0.50;99.90
40960;DHT22;27842;52.272;8.052;2022-11-20T01:04:23;-0.60;99.90
40960;DHT22;27842;52.272;8.052;2022-11-20T01:06:49;-0.60;99.90
40960;DHT22;27842;52.272;8.052;2022-11-20T01:09:15;-0.60;99.90
40960;DHT22;27842;52.272;8.052;2022-11-20T01:11:42;-0.60;99.90
40960;DHT22;27842;52.272;8.052;2022-11-20T01:14:12;-0.60;99.90
40960;DHT22;27842;52.272;8.052;2022-11-20T01:16:42;-0.60;99.90
40960;DHT22;27842;52.272;8.052;2022-11-20T01:19:11;-0.60;99.90
40960;DHT22;27842;52.272;8.052;2022-11-20T01:21:38;-0.60;99.90
40960;DHT22;27842;52.272;8.052;2022-11-20T01:24:06;-0.60;99.90
40960;DHT22;27842;52.272;8.052;2022-11-20T01:26:35;-0.60;99.90
40960;DHT22;27842;52.272;8.052;2022-11-20T01:29:01;-0.60;99.90
40960;DHT22;27842;52.272;8.052;2022-11-20T01:33:55;-0.60;99.90
40960;DHT22;27842;52.272;8.052;2022-11-20T01:36:22;-0.70;99.90
40960;DHT22;27842;52.272;8.052;2022-11-20T01:38:51;-0.60;99.90
40960;DHT22;27842;52.272;8.052;2022-11-20T01:41:17;-0.60;99.90
40960;DHT22;27842;52.272;8.052;2022-11-20T01:44:03;-0.60;99.90
40960;DHT22;27842;52.272;8.052;2022-11-20T01:46:31;-0.70;99.90
40960;DHT22;27842;52.272;8.052;2022-11-20T01:51:39;-0.70;99.90
40960;DHT22;27842;52.272;8.052;2022-11-20T01:54:10;-0.80;99.90
40960;DHT22;27842;52.272;8.052;2022-11-20T01:56:43;-0.80;99.90
40960;DHT22;27842;52.272;8.052;2022-11-20T01:59:10;-0.90;99.90
40960;DHT22;27842;52.272;8.052;2022-11-20T02:01:37;-0.90;99.90
40960;DHT22;27842;52.272;8.052;2022-11-20T02:04:05;-0.80;99.90
40960;DHT22;27842;52.272;8.052;2022-11-20T02:06:45;-0.90;99.90
40960;DHT22;27842;52.272;8.052;2022-11-20T02:09:14;-0.90;99.90
40960;DHT22;27842;52.272;8.052;2022-11-20T02:11:40;-0.80;99.90
40960;DHT22;27842;52.272;8.052;2022-11-20T02:14:05;-0.80;99.90
40960;DHT22;27842;52.272;8.052;2022-11-20T02:16:36;-0.80;99.90
40960;DHT22;27842;52.272;8.052;2022-11-20T02:19:04;-0.80;99.90
40960;DHT22;27842;52.272;8.052;2022-11-20T02:29:10;-0.90;99.90
40960;DHT22;27842;52.272;8.052;2022-11-20T02:31:41;-0.90;99.90
40960;DHT22;27842;52.272;8.052;2022-11-20T02:34:08;-1.00;99.90
40960;DHT22;27842;52.272;8.052;2022-11-20T02:36:35;-1.00;99.90
40960;DHT22;27842;52.272;8.052;2022-11-20T02:39:03;-1.00;99.90
40960;DHT22;27842;52.272;8.052;2022-11-20T02:41:36;-1.00;99.90
40960;DHT22;27842;52.272;8.052;2022-11-20T02:44:04;-1.00;99.90
40960;DHT22;27842;52.272;8.052;2022-11-20T02:46:30;-1.00;99.90
40960;DHT22;27842;52.272;8.052;2022-11-20T02:48:56;-1.00;99.90
40960;DHT22;27842;52.272;8.052;2022-11-20T02:51:22;-1.00;99.90
40960;DHT22;27842;52.272;8.052;2022-11-20T02:53:48;-1.00;99.90
40960;DHT22;27842;52.272;8.052;2022-11-20T02:56:14;-1.00;99.90
40960;DHT22;27842;52.272;8.052;2022-11-20T02:58:40;-1.00;99.90
40960;DHT22;27842;52.272;8.052;2022-11-20T03:01:06;-1.00;99.90
40960;DHT22;27842;52.272;8.052;2022-11-20T03:03:31;-1.10;99.90
40960;DHT22;27842;52.272;8.052;2022-11-20T03:05:59;-1.10;99.90
40960;DHT22;27842;52.272;8.052;2022-11-20T03:08:25;-1.20;99.90
40960;DHT22;27842;52.272;8.052;2022-11-20T03:10:50;-1.10;99.90
40960;DHT22;27842;52.272;8.052;2022-11-20T03:13:16;-1.10;99.90
40960;DHT22;27842;52.272;8.052;2022-11-20T03:15:42;-1.10;99.90
40960;DHT22;27842;52.272;8.052;2022-11-20T03:18:07;-1.10;99.90
40960;DHT22;27842;52.272;8.052;2022-11-20T03:20:33;-1.10;99.90
40960;DHT22;27842;52.272;8.052;2022-11-20T03:22:59;-1.20;99.90
40960;DHT22;27842;52.272;8.052;2022-11-20T03:25:25;-1.20;99.90
40960;DHT22;27842;52.272;8.052;2022-11-20T03:27:50;-1.20;99.90
40960;DHT22;27842;52.272;8.052;2022-11-20T03:30:16;-1.20;99.90
40960;DHT22;27842;52.272;8.052;2022-11-20T03:32:42;-1.20;99.90
40960;DHT22;27842;52.272;8.052;2022-11-20T03:35:07;-1.20;99.90
40960;DHT22;27842;52.272;8.052;2022-11-20T03:37:33;-1.20;99.90
40960;DHT22;27842;52.272;8.052;2022-11-20T03:39:59;-1.20;99.90
40960;DHT22;27842;52.272;8.052;2022-11-20T03:42:24;-1.20;99.90
40960;DHT22;27842;52.272;8.052;2022-11-20T03:45:08;-1.20;99.90
40960;DHT22;27842;52.272;8.052;2022-11-20T03:47:34;-1.20;99.90
40960;DHT22;27842;52.272;8.052;2022-11-20T03:50:00;-1.20;99.90
40960;DHT22;27842;52.272;8.052;2022-11-20T03:52:25;-1.20;99.90
40960;DHT22;27842;52.272;8.052;2022-11-20T03:54:51;-1.20;99.90
40960;DHT22;27842;52.272;8.052;2022-11-20T03:57:22;-1.20;99.90
40960;DHT22;27842;52.272;8.052;2022-11-20T03:59:48;-1.20;99.90
40960;DHT22;27842;52.272;8.052;2022-11-20T04:02:14;-1.20;99.90
40960;DHT22;27842;52.272;8.052;2022-11-20T04:04:39;-1.30;99.90
40960;DHT22;27842;52.272;8.052;2022-11-20T04:07:05;-1.30;99.90
40960;DHT22;27842;52.272;8.052;2022-11-20T04:09:30;-1.30;99.90
40960;DHT22;27842;52.272;8.052;2022-11-20T04:11:56;-1.30;99.90
40960;DHT22;27842;52.272;8.052;2022-11-20T04:14:22;-1.30;99.90
40960;DHT22;27842;52.272;8.052;2022-11-20T04:16:47;-1.40;99.90
40960;DHT22;27842;52.272;8.052;2022-11-20T04:19:15;-1.40;99.90
40960;DHT22;27842;52.272;8.052;2022-11-20T04:21:41;-1.40;99.90
40960;DHT22;27842;52.272;8.052;2022-11-20T04:24:07;-1.40;99.90
40960;DHT22;27842;52.272;8.052;2022-11-20T04:26:37;-1.40;99.90
40960;DHT22;27842;52.272;8.052;2022-11-20T04:29:03;-1.40;99.90
40960;DHT22;27842;52.272;8.052;2022-11-20T04:31:32;-1.50;99.90
40960;DHT22;27842;52.272;8.052;2022-11-20T04:34:03;-1.50;99.90
40960;DHT22;27842;52.272;8.052;2022-11-20T04:36:29;-1.40;99.90
40960;DHT22;27842;52.272;8.052;2022-11-20T04:38:57;-1.40;99.90
40960;DHT22;27842;52.272;8.052;2022-11-20T04:41:24;-1.50;99.90
40960;DHT22;27842;52.272;8.052;2022-11-20T04:43:54;-1.40;99.90
40960;DHT22;27842;52.272;8.052;2022-11-20T04:46:24;-1.40;99.90
40960;DHT22;27842;52.272;8.052;2022-11-20T04:48:50;-1.40;99.90
40960;DHT22;27842;52.272;8.052;2022-11-20T04:51:16;-1.50;99.90
40960;DHT22;27842;52.272;8.052;2022-11-20T04:53:41;-1.50;99.90
40960;DHT22;27842;52.272;8.052;2022-11-20T04:56:08;-1.50;99.90
40960;DHT22;27842;52.272;8.052;2022-11-20T04:58:35;-1.50;99.90
40960;DHT22;27842;52.272;8.052;2022-11-20T05:03:31;-1.50;99.90
40960;DHT22;27842;52.272;8.052;2022-11-20T05:06:00;-1.50;99.90
40960;DHT22;27842;52.272;8.052;2022-11-20T05:08:26;-1.50;99.90
40960;DHT22;27842;52.272;8.052;2022-11-20T05:10:52;-1.50;99.90
40960;DHT22;27842;52.272;8.052;2022-11-20T05:13:17;-1.50;99.90
40960;DHT22;27842;52.272;8.052;2022-11-20T05:15:43;-1.60;99.90
40960;DHT22;27842;52.272;8.052;2022-11-20T05:18:08;-1.60;99.90
40960;DHT22;27842;52.272;8.052;2022-11-20T05:20:34;-1.60;99.90
40960;DHT22;27842;52.272;8.052;2022-11-20T05:23:01;-1.60;99.90
40960;DHT22;27842;52.272;8.052;2022-11-20T05:25:27;-1.60;99.90
40960;DHT22;27842;52.272;8.052;2022-11-20T05:27:53;-1.60;99.90
40960;DHT22;27842;52.272;8.052;2022-11-20T05:30:19;-1.60;99.90
40960;DHT22;27842;52.272;8.052;2022-11-20T05:32:44;-1.60;99.90
40960;DHT22;27842;52.272;8.052;2022-11-20T05:35:10;-1.60;99.90
40960;DHT22;27842;52.272;8.052;2022-11-20T05:37:35;-1.70;99.90
40960;DHT22;27842;52.272;8.052;2022-11-20T05:40:01;-1.60;99.90
40960;DHT22;27842;52.272;8.052;2022-11-20T05:42:30;-1.60;99.90
40960;DHT22;27842;52.272;8.052;2022-11-20T05:45:00;-1.60;99.90
40960;DHT22;27842;52.272;8.052;2022-11-20T05:47:27;-1.60;99.90
40960;DHT22;27842;52.272;8.052;2022-11-20T05:49:53;-1.60;99.90
40960;DHT22;27842;52.272;8.052;2022-11-20T05:52:19;-1.60;99.90
40960;DHT22;27842;52.272;8.052;2022-11-20T05:54:44;-1.60;99.90
40960;DHT22;27842;52.272;8.052;2022-11-20T05:57:19;-1.60;99.90
40960;DHT22;27842;52.272;8.052;2022-11-20T05:59:44;-1.70;99.90
40960;DHT22;27842;52.272;8.052;2022-11-20T06:02:10;-1.70;99.90
40960;DHT22;27842;52.272;8.052;2022-11-20T06:04:36;-1.70;99.90
40960;DHT22;27842;52.272;8.052;2022-11-20T06:07:04;-1.70;99.90
40960;DHT22;27842;52.272;8.052;2022-11-20T06:09:30;-1.70;99.90
40960;DHT22;27842;52.272;8.052;2022-11-20T06:11:55;-1.70;99.90
40960;DHT22;27842;52.272;8.052;2022-11-20T06:14:21;-1.70;99.90
40960;DHT22;27842;52.272;8.052;2022-11-20T06:16:47;-1.70;99.90
40960;DHT22;27842;52.272;8.052;2022-11-20T06:19:12;-1.80;99.90
40960;DHT22;27842;52.272;8.052;2022-11-20T06:21:38;-1.80;99.90
40960;DHT22;27842;52.272;8.052;2022-11-20T06:24:04;-1.90;99.90
40960;DHT22;27842;52.272;8.052;2022-11-20T06:26:36;-1.90;99.90
40960;DHT22;27842;52.272;8.052;2022-11-20T06:29:01;-1.90;99.90
40960;DHT22;27842;52.272;8.052;2022-11-20T06:31:27;-1.80;99.90
40960;DHT22;27842;52.272;8.052;2022-11-20T06:33:53;-1.80;99.90
40960;DHT22;27842;52.272;8.052;2022-11-20T06:36:20;-1.90;99.90
40960;DHT22;27842;52.272;8.052;2022-11-20T06:38:46;-1.90;99.90
40960;DHT22;27842;52.272;8.052;2022-11-20T06:41:14;-1.80;99.90
40960;DHT22;27842;52.272;8.052;2022-11-20T06:43:41;-1.90;99.90
40960;DHT22;27842;52.272;8.052;2022-11-20T06:46:06;-1.90;99.90
40960;DHT22;27842;52.272;8.052;2022-11-20T06:48:32;-1.90;99.90
40960;DHT22;27842;52.272;8.052;2022-11-20T06:50:58;-1.90;99.90
40960;DHT22;27842;52.272;8.052;2022-11-20T06:53:24;-1.90;99.90
40960;DHT22;27842;52.272;8.052;2022-11-20T06:55:51;-1.90;99.90
40960;DHT22;27842;52.272;8.052;2022-11-20T06:58:17;-1.90;99.90
40960;DHT22;27842;52.272;8.052;2022-11-20T07:00:43;-1.90;99.90
40960;DHT22;27842;52.272;8.052;2022-11-20T07:03:10;-1.90;99.90
40960;DHT22;27842;52.272;8.052;2022-11-20T07:05:37;-1.90;99.90
40960;DHT22;27842;52.272;8.052;2022-11-20T07:08:03;-1.90;99.90
40960;DHT22;27842;52.272;8.052;2022-11-20T07:10:30;-1.80;99.90
40960;DHT22;27842;52.272;8.052;2022-11-20T07:12:55;-1.80;99.90
40960;DHT22;27842;52.272;8.052;2022-11-20T07:15:22;-1.90;99.90
40960;DHT22;27842;52.272;8.052;2022-11-20T07:17:48;-1.80;99.90
40960;DHT22;27842;52.272;8.052;2022-11-20T07:20:15;-1.80;99.90
40960;DHT22;27842;52.272;8.052;2022-11-20T07:22:41;-1.80;99.90
40960;DHT22;27842;52.272;8.052;2022-11-20T07:25:08;-1.90;99.90
40960;DHT22;27842;52.272;8.052;2022-11-20T07:27:37;-1.80;99.90
40960;DHT22;27842;52.272;8.052;2022-11-20T07:30:03;-1.90;99.90
40960;DHT22;27842;52.272;8.052;2022-11-20T07:32:29;-1.80;99.90
40960;DHT22;27842;52.272;8.052;2022-11-20T07:34:55;-1.80;99.90
40960;DHT22;27842;52.272;8.052;2022-11-20T07:37:20;-1.80;99.90
40960;DHT22;27842;52.272;8.052;2022-11-20T07:39:46;-1.80;99.90
40960;DHT22;27842;52.272;8.052;2022-11-20T07:42:12;-1.80;99.90
40960;DHT22;27842;52.272;8.052;2022-11-20T07:44:38;-1.80;99.90
40960;DHT22;27842;52.272;8.052;2022-11-20T07:47:04;-1.80;99.90
40960;DHT22;27842;52.272;8.052;2022-11-20T07:49:29;-1.70;99.90
40960;DHT22;27842;52.272;8.052;2022-11-20T07:51:55;-1.70;99.90
40960;DHT22;27842;52.272;8.052;2022-11-20T07:54:23;-1.60;99.90
40960;DHT22;27842;52.272;8.052;2022-11-20T07:56:49;-1.50;99.90
40960;DHT22;27842;52.272;8.052;2022-11-20T07:59:15;-1.50;99.90
40960;DHT22;27842;52.272;8.052;2022-11-20T08:01:42;-1.40;99.90
40960;DHT22;27842;52.272;8.052;2022-11-20T08:04:08;-1.40;99.90
40960;DHT22;27842;52.272;8.052;2022-11-20T08:06:34;-1.40;99.90
40960;DHT22;27842;52.272;8.052;2022-11-20T08:09:00;-1.40;99.90
40960;DHT22;27842;52.272;8.052;2022-11-20T08:11:25;-1.30;99.90
40960;DHT22;27842;52.272;8.052;2022-11-20T08:14:10;-1.30;99.90
40960;DHT22;27842;52.272;8.052;2022-11-20T08:19:04;-1.30;99.90
40960;DHT22;27842;52.272;8.052;2022-11-20T08:21:30;-1.20;99.90
40960;DHT22;27842;52.272;8.052;2022-11-20T08:23:57;-1.20;99.90
40960;DHT22;27842;52.272;8.052;2022-11-20T08:26:23;-1.10;99.90
40960;DHT22;27842;52.272;8.052;2022-11-20T08:28:52;-1.20;99.90
40960;DHT22;27842;52.272;8.052;2022-11-20T08:31:19;-1.10;99.90
40960;DHT22;27842;52.272;8.052;2022-11-20T08:33:45;-1.10;99.90
40960;DHT22;27842;52.272;8.052;2022-11-20T08:36:10;-1.00;99.90
40960;DHT22;27842;52.272;8.052;2022-11-20T08:38:36;-0.90;99.90
40960;DHT22;27842;52.272;8.052;2022-11-20T08:41:04;-0.90;99.90
40960;DHT22;27842;52.272;8.052;2022-11-20T08:43:48;-0.90;99.90
40960;DHT22;27842;52.272;8.052;2022-11-20T08:46:14;-0.90;99.90
40960;DHT22;27842;52.272;8.052;2022-11-20T08:48:40;-0.80;99.90
40960;DHT22;27842;52.272;8.052;2022-11-20T08:51:06;-0.80;99.90
40960;DHT22;27842;52.272;8.052;2022-11-20T08:53:31;-0.70;99.90
40960;DHT22;27842;52.272;8.052;2022-11-20T08:55:57;-0.70;99.90
40960;DHT22;27842;52.272;8.052;2022-11-20T08:58:24;-0.70;99.90
40960;DHT22;27842;52.272;8.052;2022-11-20T09:00:49;-0.70;99.90
40960;DHT22;27842;52.272;8.052;2022-11-20T09:03:18;-0.70;99.90
40960;DHT22;27842;52.272;8.052;2022-11-20T09:05:43;-0.60;99.90
40960;DHT22;27842;52.272;8.052;2022-11-20T09:08:09;-0.60;99.90
40960;DHT22;27842;52.272;8.052;2022-11-20T09:10:35;-0.60;99.90
40960;DHT22;27842;52.272;8.052;2022-11-20T09:13:02;-0.50;99.90
40960;DHT22;27842;52.272;8.052;2022-11-20T09:15:27;-0.50;99.90
40960;DHT22;27842;52.272;8.052;2022-11-20T09:17:55;-0.50;99.90
40960;DHT22;27842;52.272;8.052;2022-11-20T09:20:21;-0.40;99.90
40960;DHT22;27842;52.272;8.052;2022-11-20T09:22:47;-0.40;99.90
40960;DHT22;27842;52.272;8.052;2022-11-20T09:25:13;-0.40;99.90
40960;DHT22;27842;52.272;8.052;2022-11-20T09:27:38;-0.30;99.90
40960;DHT22;27842;52.272;8.052;2022-11-20T09:30:07;-0.30;99.90
40960;DHT22;27842;52.272;8.052;2022-11-20T09:32:32;-0.30;99.90
40960;DHT22;27842;52.272;8.052;2022-11-20T09:34:59;-0.30;99.90
40960;DHT22;27842;52.272;8.052;2022-11-20T09:37:24;-0.20;99.90
40960;DHT22;27842;52.272;8.052;2022-11-20T09:39:50;-0.20;99.90
40960;DHT22;27842;52.272;8.052;2022-11-20T09:50:25;0.00;99.90
40960;DHT22;27842;52.272;8.052;2022-11-20T09:55:29;0.00;99.90
40960;DHT22;27842;52.272;8.052;2022-11-20T09:57:57;0.00;99.90
40960;DHT22;27842;52.272;8.052;2022-11-20T10:00:24;-0.10;99.90
40960;DHT22;27842;52.272;8.052;2022-11-20T10:03:16;0.00;99.90
40960;DHT22;27842;52.272;8.052;2022-11-20T10:05:47;0.00;99.90
40960;DHT22;27842;52.272;8.052;2022-11-20T10:08:25;0.00;99.90
40960;DHT22;27842;52.272;8.052;2022-11-20T10:11:04;0.00;99.90
40960;DHT22;27842;52.272;8.052;2022-11-20T10:13:40;0.10;99.90
40960;DHT22;27842;52.272;8.052;2022-11-20T10:16:42;0.10;99.90
40960;DHT22;27842;52.272;8.052;2022-11-20T10:22:12;0.10;99.90
40960;DHT22;27842;52.272;8.052;2022-11-20T10:25:05;0.10;99.90
40960;DHT22;27842;52.272;8.052;2022-11-20T10:27:37;0.20;99.90
40960;DHT22;27842;52.272;8.052;2022-11-20T10:30:15;0.20;99.90
40960;DHT22;27842;52.272;8.052;2022-11-20T10:32:47;0.20;99.90
40960;DHT22;27842;52.272;8.052;2022-11-20T10:37:42;0.30;99.90
40960;DHT22;27842;52.272;8.052;2022-11-20T10:40:20;0.30;99.90
40960;DHT22;27842;52.272;8.052;2022-11-20T10:42:56;0.30;99.90
40960;DHT22;27842;52.272;8.052;2022-11-20T10:47:56;0.40;99.90
40960;DHT22;27842;52.272;8.052;2022-11-20T10:50:27;0.40;99.90
40960;DHT22;27842;52.272;8.052;2022-11-20T10:53:19;0.40;99.90
40960;DHT22;27842;52.272;8.052;2022-11-20T10:56:02;0.50;99.90
40960;DHT22;27842;52.272;8.052;2022-11-20T11:01:53;0.50;99.90
40960;DHT22;27842;52.272;8.052;2022-11-20T11:06:48;0.50;99.90
40960;DHT22;27842;52.272;8.052;2022-11-20T11:09:24;0.60;99.90
40960;DHT22;27842;52.272;8.052;2022-11-20T11:11:53;0.60;99.90
40960;DHT22;27842;52.272;8.052;2022-11-20T11:14:19;0.70;99.90
40960;DHT22;27842;52.272;8.052;2022-11-20T11:16:53;0.70;99.90
40960;DHT22;27842;52.272;8.052;2022-11-20T11:19:19;0.80;99.90
40960;DHT22;27842;52.272;8.052;2022-11-20T11:21:51;0.80;99.90
40960;DHT22;27842;52.272;8.052;2022-11-20T11:24:26;0.90;99.90
40960;DHT22;27842;52.272;8.052;2022-11-20T11:26:58;0.90;99.90
40960;DHT22;27842;52.272;8.052;2022-11-20T11:29:25;0.90;99.90
40960;DHT22;27842;52.272;8.052;2022-11-20T11:32:08;1.00;99.90
40960;DHT22;27842;52.272;8.052;2022-11-20T11:34:34;1.10;99.90
40960;DHT22;27842;52.272;8.052;2022-11-20T11:37:01;1.10;99.90
40960;DHT22;27842;52.272;8.052;2022-11-20T11:39:30;1.20;99.90
40960;DHT22;27842;52.272;8.052;2022-11-20T11:41:57;1.20;99.90
40960;DHT22;27842;52.272;8.052;2022-11-20T11:44:33;1.30;99.90
40960;DHT22;27842;52.272;8.052;2022-11-20T11:47:29;1.30;99.90
40960;DHT22;27842;52.272;8.052;2022-11-20T11:53:12;1.30;99.90
40960;DHT22;27842;52.272;8.052;2022-11-20T11:58:48;1.40;99.90
40960;DHT22;27842;52.272;8.052;2022-11-20T12:03:42;1.50;99.90
40960;DHT22;27842;52.272;8.052;2022-11-20T12:06:14;1.50;99.90
40960;DHT22;27842;52.272;8.052;2022-11-20T12:13:55;1.60;99.90
40960;DHT22;27842;52.272;8.052;2022-11-20T12:16:23;1.60;99.90
40960;DHT22;27842;52.272;8.052;2022-11-20T12:18:51;1.60;99.90
40960;DHT22;27842;52.272;8.052;2022-11-20T12:35:32;1.70;99.90
40960;DHT22;27842;52.272;8.052;2022-11-20T12:43:31;1.80;99.90
40960;DHT22;27842;52.272;8.052;2022-11-20T12:49:12;1.80;99.90
40960;DHT22;27842;52.272;8.052;2022-11-20T12:54:26;1.90;99.90
40960;DHT22;27842;52.272;8.052;2022-11-20T13:00:09;1.90;99.90
40960;DHT22;27842;52.272;8.052;2022-11-20T13:08:30;1.90;99.90
40960;DHT22;27842;52.272;8.052;2022-11-20T13:14:11;1.90;99.90
40960;DHT22;27842;52.272;8.052;2022-11-20T13:16:48;1.90;99.90
40960;DHT22;27842;52.272;8.052;2022-11-20T13:19:16;1.90;99.90
40960;DHT22;27842;52.272;8.052;2022-11-20T13:21:45;1.80;99.90
40960;DHT22;27842;52.272;8.052;2022-11-20T13:29:42;1.90;99.90
40960;DHT22;27842;52.272;8.052;2022-11-20T13:32:16;1.90;99.90
40960;DHT22;27842;52.272;8.052;2022-11-20T13:34:57;1.90;99.90
40960;DHT22;27842;52.272;8.052;2022-11-20T13:37:35;1.90;99.90
40960;DHT22;27842;52.272;8.052;2022-11-20T13:45:29;2.00;99.90
40960;DHT22;27842;52.272;8.052;2022-11-20T13:47:56;2.00;99.90
40960;DHT22;27842;52.272;8.052;2022-11-20T13:55:54;2.00;99.90
40960;DHT22;27842;52.272;8.052;2022-11-20T13:58:44;2.00;99.90
40960;DHT22;27842;52.272;8.052;2022-11-20T14:01:25;2.10;99.90
40960;DHT22;27842;52.272;8.052;2022-11-20T14:03:52;2.10;99.90
40960;DHT22;27842;52.272;8.052;2022-11-20T14:06:34;2.10;99.90
40960;DHT22;27842;52.272;8.052;2022-11-20T14:09:03;2.10;99.90
40960;DHT22;27842;52.272;8.052;2022-11-20T14:11:30;2.10;99.90
40960;DHT22;27842;52.272;8.052;2022-11-20T14:16:25;2.20;99.90
40960;DHT22;27842;52.272;8.052;2022-11-20T14:18:51;2.20;99.90
40960;DHT22;27842;52.272;8.052;2022-11-20T14:21:28;2.20;99.90
40960;DHT22;27842;52.272;8.052;2022-11-20T14:24:09;2.20;99.90
40960;DHT22;27842;52.272;8.052;2022-11-20T14:26:38;2.20;99.90
40960;DHT22;27842;52.272;8.052;2022-11-20T14:29:16;2.20;99.90
40960;DHT22;27842;52.272;8.052;2022-11-20T14:31:43;2.20;99.90
40960;DHT22;27842;52.272;8.052;2022-11-20T14:34:19;2.20;99.90
40960;DHT22;27842;52.272;8.052;2022-11-20T14:36:45;2.20;99.90
40960;DHT22;27842;52.272;8.052;2022-11-20T14:39:19;2.20;99.90
40960;DHT22;27842;52.272;8.052;2022-11-20T14:41:52;2.20;99.90
40960;DHT22;27842;52.272;8.052;2022-11-20T14:44:23;2.20;99.90
40960;DHT22;27842;52.272;8.052;2022-11-20T14:46:52;2.20;99.90
40960;DHT22;27842;52.272;8.052;2022-11-20T14:49:19;2.20;99.90
40960;DHT22;27842;52.272;8.052;2022-11-20T14:51:46;2.20;99.90
40960;DHT22;27842;52.272;8.052;2022-11-20T14:54:12;2.20;99.90
40960;DHT22;27842;52.272;8.052;2022-11-20T14:57:01;2.20;99.90
40960;DHT22;27842;52.272;8.052;2022-11-20T14:59:30;2.20;99.90
40960;DHT22;27842;52.272;8.052;2022-11-20T15:02:09;2.20;99.90
40960;DHT22;27842;52.272;8.052;2022-11-20T15:04:49;2.10;99.90
40960;DHT22;27842;52.272;8.052;2022-11-20T15:07:33;2.10;99.90
40960;DHT22;27842;52.272;8.052;2022-11-20T15:10:09;2.10;99.90
40960;DHT22;27842;52.272;8.052;2022-11-20T15:12:38;2.10;99.90
40960;DHT22;27842;52.272;8.052;2022-11-20T15:15:06;2.10;99.90
40960;DHT22;27842;52.272;8.052;2022-11-20T15:17:32;2.10;99.90
40960;DHT22;27842;52.272;8.052;2022-11-20T15:20:02;2.10;99.90
40960;DHT22;27842;52.272;8.052;2022-11-20T15:22:28;2.10;99.90
40960;DHT22;27842;52.272;8.052;2022-11-20T15:24:54;2.10;99.90
40960;DHT22;27842;52.272;8.052;2022-11-20T15:27:20;2.10;99.90
40960;DHT22;27842;52.272;8.052;2022-11-20T15:29:45;2.00;99.90
40960;DHT22;27842;52.272;8.052;2022-11-20T15:32:11;2.00;99.90
40960;DHT22;27842;52.272;8.052;2022-11-20T15:34:36;2.00;99.90
40960;DHT22;27842;52.272;8.052;2022-11-20T15:37:02;2.00;99.90
40960;DHT22;27842;52.272;8.052;2022-11-20T15:39:28;2.00;99.90
40960;DHT22;27842;52.272;8.052;2022-11-20T15:41:53;2.00;99.90
40960;DHT22;27842;52.272;8.052;2022-11-20T15:44:19;2.00;99.90
40960;DHT22;27842;52.272;8.052;2022-11-20T15:46:44;2.00;99.90
40960;DHT22;27842;52.272;8.052;2022-11-20T15:49:16;2.00;99.90
40960;DHT22;27842;52.272;8.052;2022-11-20T15:51:46;2.00;99.90
40960;DHT22;27842;52.272;8.052;2022-11-20T15:54:18;2.00;99.90
40960;DHT22;27842;52.272;8.052;2022-11-20T15:56:48;2.00;99.90
40960;DHT22;27842;52.272;8.052;2022-11-20T15:59:14;1.90;99.90
40960;DHT22;27842;52.272;8.052;2022-11-20T16:01:41;1.90;99.90
40960;DHT22;27842;52.272;8.052;2022-11-20T16:04:12;2.00;99.90
40960;DHT22;27842;52.272;8.052;2022-11-20T16:06:38;1.90;99.90
40960;DHT22;27842;52.272;8.052;2022-11-20T16:09:04;1.90;99.90
40960;DHT22;27842;52.272;8.052;2022-11-20T16:11:30;2.00;99.90
40960;DHT22;27842;52.272;8.052;2022-11-20T16:13:55;1.90;99.90
40960;DHT22;27842;52.272;8.052;2022-11-20T16:16:39;1.90;99.90
40960;DHT22;27842;52.272;8.052;2022-11-20T16:19:12;1.90;99.90
40960;DHT22;27842;52.272;8.052;2022-11-20T16:21:38;1.90;99.90
40960;DHT22;27842;52.272;8.052;2022-11-20T16:24:08;1.90;99.90
40960;DHT22;27842;52.272;8.052;2022-11-20T16:26:37;1.90;99.90
40960;DHT22;27842;52.272;8.052;2022-11-20T16:29:04;1.90;99.90
40960;DHT22;27842;52.272;8.052;2022-11-20T16:31:31;1.90;99.90
40960;DHT22;27842;52.272;8.052;2022-11-20T16:33:58;1.90;99.90
40960;DHT22;27842;52.272;8.052;2022-11-20T16:36:26;1.90;99.90
40960;DHT22;27842;52.272;8.052;2022-11-20T16:38:57;1.90;99.90
40960;DHT22;27842;52.272;8.052;2022-11-20T16:41:28;1.90;99.90
40960;DHT22;27842;52.272;8.052;2022-11-20T16:43:57;1.90;99.90
40960;DHT22;27842;52.272;8.052;2022-11-20T16:46:24;1.90;99.90
40960;DHT22;27842;52.272;8.052;2022-11-20T16:48:55;1.90;99.90
40960;DHT22;27842;52.272;8.052;2022-11-20T16:51:21;1.90;99.90
40960;DHT22;27842;52.272;8.052;2022-11-20T16:53:47;1.90;99.90
40960;DHT22;27842;52.272;8.052;2022-11-20T16:56:17;1.90;99.90
40960;DHT22;27842;52.272;8.052;2022-11-20T16:58:47;1.90;99.90
40960;DHT22;27842;52.272;8.052;2022-11-20T17:01:16;1.90;99.90
40960;DHT22;27842;52.272;8.052;2022-11-20T17:03:43;1.90;99.90
40960;DHT22;27842;52.272;8.052;2022-11-20T17:06:14;1.90;99.90
40960;DHT22;27842;52.272;8.052;2022-11-20T17:08:41;1.90;99.90
40960;DHT22;27842;52.272;8.052;2022-11-20T17:11:08;1.90;99.90
40960;DHT22;27842;52.272;8.052;2022-11-20T17:13:35;1.90;99.90
40960;DHT22;27842;52.272;8.052;2022-11-20T17:16:06;1.90;99.90
40960;DHT22;27842;52.272;8.052;2022-11-20T17:18:31;1.90;99.90
40960;DHT22;27842;52.272;8.052;2022-11-20T17:20:58;1.90;99.90
40960;DHT22;27842;52.272;8.052;2022-11-20T17:23:28;1.90;99.90
40960;DHT22;27842;52.272;8.052;2022-11-20T17:26:42;1.90;99.90
40960;DHT22;27842;52.272;8.052;2022-11-20T17:29:09;1.90;99.90
40960;DHT22;27842;52.272;8.052;2022-11-20T17:31:36;1.90;99.90
40960;DHT22;27842;52.272;8.052;2022-11-20T17:34:04;1.90;99.90
40960;DHT22;27842;52.272;8.052;2022-11-20T17:36:30;1.90;99.90
40960;DHT22;27842;52.272;8.052;2022-11-20T17:38:56;1.90;99.90